createdAt,value
2018-03-23T00:00:10.257Z,14.90
2018-03-23T00:02:43.520Z,18.20
2018-03-23T00:05:16.284Z,19.40
2018-03-23T00:07:48.768Z,17.27
2018-03-23T00:10:21.330Z,16.93
2018-03-23T00:13:13.301Z,17.87
2018-03-23T00:15:46.500Z,18.60
2018-03-23T00:18:21.441Z,14.70
2018-03-23T00:20:54.527Z,18.00
2018-03-23T00:23:26.975Z,19.50
2018-03-23T00:25:59.377Z,15.70
2018-03-23T00:28:31.877Z,15.00
2018-03-23T00:31:04.407Z,17.50
2018-03-23T00:33:37.461Z,19.13
2018-03-23T00:36:10.180Z,15.67
2018-03-23T00:38:42.701Z,15.73
2018-03-23T00:41:16.052Z,15.47
2018-03-23T00:43:49.121Z,11.77
2018-03-23T00:46:22.365Z,15.67
2018-03-23T00:48:54.889Z,14.50
2018-03-23T00:51:27.420Z,13.90
2018-03-23T00:53:59.964Z,13.97
2018-03-23T00:56:32.533Z,14.10
2018-03-23T00:59:05.011Z,12.50
2018-03-23T01:01:38.625Z,13.50
2018-03-23T01:04:11.234Z,12.83
2018-03-23T01:06:43.990Z,13.03
2018-03-23T01:09:16.812Z,12.63
2018-03-23T01:11:49.165Z,12.70
2018-03-23T01:14:21.545Z,13.37
2018-03-23T01:16:53.882Z,13.07
2018-03-23T01:19:27.062Z,13.43
2018-03-23T01:21:59.394Z,11.67
2018-03-23T01:24:32.005Z,12.83
2018-03-23T01:27:04.582Z,11.23
2018-03-23T01:29:37.462Z,11.90
2018-03-23T01:32:10.302Z,11.73
2018-03-23T01:34:44.150Z,11.47
2018-03-23T01:37:16.747Z,11.43
2018-03-23T01:39:49.506Z,14.47
2018-03-23T01:42:22.899Z,12.43
2018-03-23T01:44:55.379Z,13.10
2018-03-23T01:47:28.127Z,11.83
2018-03-23T01:50:00.824Z,12.17
2018-03-23T01:52:33.523Z,11.33
2018-03-23T01:55:06.143Z,16.50
2018-03-23T01:57:39.566Z,16.13
2018-03-23T02:00:12.203Z,16.07
2018-03-23T02:02:45.012Z,14.53
2018-03-23T02:05:17.558Z,18.40
2018-03-23T02:07:51.179Z,16.23
2018-03-23T02:10:23.799Z,16.63
2018-03-23T02:12:56.471Z,20.77
2018-03-23T02:15:28.926Z,18.47
2018-03-23T02:18:01.643Z,20.20
2018-03-23T02:20:34.221Z,22.47
2018-03-23T02:23:07.897Z,20.70
2018-03-23T02:25:40.437Z,16.77
2018-03-23T02:28:13.267Z,17.50
2018-03-23T02:30:46.102Z,15.63
2018-03-23T02:33:18.612Z,15.60
2018-03-23T02:35:51.840Z,14.57
2018-03-23T02:38:24.361Z,12.93
2018-03-23T02:40:56.860Z,11.67
2018-03-23T02:43:29.405Z,11.77
2018-03-23T02:46:02.086Z,12.37
2018-03-23T02:48:36.246Z,12.23
2018-03-23T02:51:08.718Z,12.17
2018-03-23T02:53:41.336Z,10.60
2018-03-23T02:56:14.586Z,11.07
2018-03-23T02:58:47.865Z,11.90
2018-03-23T03:01:20.575Z,11.10
2018-03-23T03:03:53.763Z,11.30
2018-03-23T03:06:26.305Z,11.97
2018-03-23T03:08:58.976Z,11.67
2018-03-23T03:11:31.307Z,13.03
2018-03-23T03:14:03.826Z,12.90
2018-03-23T03:16:36.340Z,13.03
2018-03-23T03:19:09.800Z,12.90
2018-03-23T03:21:42.274Z,11.67
2018-03-23T03:24:14.876Z,11.97
2018-03-23T03:26:48.117Z,11.87
2018-03-23T03:29:21.345Z,14.53
2018-03-23T03:31:53.778Z,14.33
2018-03-23T03:34:26.923Z,14.53
2018-03-23T03:37:00.131Z,12.80
2018-03-23T03:39:32.700Z,12.53
2018-03-23T03:42:05.286Z,13.53
2018-03-23T03:44:37.837Z,13.07
2018-03-23T03:47:10.324Z,11.87
2018-03-23T03:49:43.745Z,13.03
2018-03-23T03:52:16.271Z,14.73
2018-03-23T03:54:48.967Z,14.13
2018-03-23T03:57:22.164Z,13.27
2018-03-23T03:59:55.273Z,15.93
2018-03-23T04:02:27.774Z,13.97
2018-03-23T04:05:00.922Z,15.30
2018-03-23T04:07:33.485Z,13.60
2018-03-23T04:10:05.992Z,15.73
2018-03-23T04:12:38.720Z,12.90
2018-03-23T04:15:11.217Z,12.67
2018-03-23T04:17:45.082Z,12.30
2018-03-23T04:20:18.955Z,12.60
2018-03-23T04:22:51.846Z,13.43
2018-03-23T04:25:24.250Z,14.07
2018-03-23T04:27:56.721Z,15.73
2018-03-23T04:30:29.965Z,17.50
2018-03-23T04:33:02.573Z,18.93
2018-03-23T04:35:36.682Z,17.60
2018-03-23T04:38:09.095Z,16.50
2018-03-23T04:40:41.423Z,21.07
2018-03-23T04:43:14.575Z,17.33
2018-03-23T04:45:46.923Z,21.13
2018-03-23T04:48:20.235Z,23.40
2018-03-23T04:50:53.566Z,22.93
2018-03-23T04:53:25.995Z,25.20
2018-03-23T04:55:59.120Z,23.50
2018-03-23T04:58:31.770Z,22.60
2018-03-23T05:01:05.045Z,22.20
2018-03-23T05:03:37.565Z,23.57
2018-03-23T05:06:09.977Z,18.77
2018-03-23T05:08:42.570Z,21.17
2018-03-23T05:11:14.884Z,20.90
2018-03-23T05:13:47.560Z,23.67
2018-03-23T05:16:20.815Z,25.43
2018-03-23T05:18:53.327Z,22.10
2018-03-23T05:21:26.776Z,21.70
2018-03-23T05:23:59.336Z,27.33
2018-03-23T05:26:31.716Z,24.90
2018-03-23T05:29:04.207Z,25.47
2018-03-23T05:31:36.627Z,29.43
2018-03-23T05:34:09.149Z,25.13
2018-03-23T05:36:41.656Z,22.97
2018-03-23T05:39:14.281Z,29.00
2018-03-23T05:41:46.696Z,30.50
2018-03-23T05:44:19.162Z,26.53
2018-03-23T05:46:51.781Z,24.70
2018-03-23T05:49:24.153Z,29.27
2018-03-23T05:51:56.636Z,30.27
2018-03-23T05:54:29.308Z,26.73
2018-03-23T05:57:02.762Z,27.60
2018-03-23T05:59:35.297Z,35.80
2018-03-23T06:02:07.998Z,34.27
2018-03-23T06:04:40.458Z,29.37
2018-03-23T06:07:13.836Z,29.13
2018-03-23T06:09:46.358Z,32.27
2018-03-23T06:12:18.976Z,34.03
2018-03-23T06:14:51.553Z,27.90
2018-03-23T06:17:24.281Z,28.80
2018-03-23T06:19:56.770Z,30.07
2018-03-23T06:22:29.295Z,37.43
2018-03-23T06:25:01.832Z,30.70
2018-03-23T06:27:35.339Z,38.83
2018-03-23T06:30:07.932Z,31.50
2018-03-23T06:32:40.420Z,32.87
2018-03-23T06:35:12.881Z,33.40
2018-03-23T06:37:45.299Z,36.90
2018-03-23T06:40:17.692Z,33.40
2018-03-23T06:42:50.192Z,34.77
2018-03-23T06:45:22.718Z,38.63
2018-03-23T06:47:55.465Z,36.73
2018-03-23T06:50:28.472Z,39.87
2018-03-23T06:53:01.086Z,36.63
2018-03-23T06:55:33.653Z,31.77
2018-03-23T06:58:07.015Z,30.90
2018-03-23T07:00:39.487Z,34.67
2018-03-23T07:03:11.960Z,38.37
2018-03-23T07:05:44.565Z,34.83
2018-03-23T07:08:17.192Z,39.87
2018-03-23T07:10:49.809Z,38.53
2018-03-23T07:13:22.453Z,32.57
2018-03-23T07:15:55.028Z,36.10
2018-03-23T07:18:27.461Z,38.57
2018-03-23T07:21:00.617Z,35.33
2018-03-23T07:23:33.068Z,30.93
2018-03-23T07:26:06.294Z,33.10
2018-03-23T07:28:38.869Z,35.63
2018-03-23T07:31:11.443Z,33.97
2018-03-23T07:33:44.493Z,30.77
2018-03-23T07:36:17.718Z,31.87
2018-03-23T07:38:50.238Z,36.50
2018-03-23T07:41:22.823Z,32.93
2018-03-23T07:43:56.042Z,34.10
2018-03-23T07:46:29.521Z,27.00
2018-03-23T07:49:02.696Z,30.77
2018-03-23T07:51:35.364Z,32.13
2018-03-23T07:54:08.562Z,33.97
2018-03-23T07:56:41.095Z,32.30
2018-03-23T07:59:14.427Z,28.33
2018-03-23T08:01:47.885Z,33.77
2018-03-23T08:04:20.360Z,27.53
2018-03-23T08:06:52.975Z,27.37
2018-03-23T08:09:25.286Z,32.83
2018-03-23T08:11:57.810Z,34.63
2018-03-23T08:14:30.379Z,34.60
2018-03-23T08:17:02.843Z,27.53
2018-03-23T08:19:35.388Z,27.13
2018-03-23T08:22:08.080Z,27.77
2018-03-23T08:24:40.646Z,32.87
2018-03-23T08:27:13.996Z,27.23
2018-03-23T08:29:46.371Z,30.87
2018-03-23T08:32:19.936Z,31.00
2018-03-23T08:34:52.363Z,31.23
2018-03-23T08:37:25.015Z,33.23
2018-03-23T08:39:57.633Z,31.73
2018-03-23T08:42:30.765Z,32.77
2018-03-23T08:45:04.207Z,29.67
2018-03-23T08:47:36.830Z,35.30
2018-03-23T08:50:09.433Z,34.43
2018-03-23T08:52:42.222Z,33.10
2018-03-23T08:55:14.727Z,33.07
2018-03-23T08:57:47.216Z,26.70
2018-03-23T09:00:19.819Z,34.43
2018-03-23T09:02:52.152Z,30.83
2018-03-23T09:05:24.649Z,33.10
2018-03-23T09:07:57.846Z,31.70
2018-03-23T09:10:30.216Z,30.43
2018-03-23T09:13:02.597Z,29.63
2018-03-23T09:15:35.235Z,35.67
2018-03-23T09:18:08.647Z,27.03
2018-03-23T09:20:41.201Z,35.90
2018-03-23T09:23:13.800Z,28.47
2018-03-23T09:25:47.889Z,28.80
2018-03-23T09:28:20.351Z,32.03
2018-03-23T09:30:53.558Z,33.53
2018-03-23T09:33:26.093Z,26.73
2018-03-23T09:35:58.868Z,31.67
2018-03-23T09:38:31.615Z,27.77
2018-03-23T09:41:04.936Z,30.73
2018-03-23T09:43:37.272Z,25.30
2018-03-23T09:46:10.683Z,26.90
2018-03-23T09:48:43.372Z,32.50
2018-03-23T09:51:16.592Z,25.80
2018-03-23T09:53:49.388Z,24.30
2018-03-23T09:56:21.897Z,29.23
2018-03-23T09:58:54.310Z,25.87
2018-03-23T10:01:27.583Z,29.43
2018-03-23T10:04:00.192Z,27.43
2018-03-23T10:06:32.571Z,29.37
2018-03-23T10:09:05.858Z,29.97
2018-03-23T10:11:38.522Z,27.43
2018-03-23T10:14:11.136Z,32.47
2018-03-23T10:16:44.383Z,40.10
2018-03-23T10:19:16.977Z,31.60
2018-03-23T10:21:49.424Z,32.33
2018-03-23T10:24:21.965Z,38.80
2018-03-23T10:26:54.422Z,37.13
2018-03-23T10:29:26.972Z,37.03
2018-03-23T10:31:59.577Z,31.30
2018-03-23T10:34:32.391Z,36.90
2018-03-23T10:37:04.894Z,39.97
2018-03-23T10:39:37.643Z,37.07
2018-03-23T10:42:11.868Z,34.93
2018-03-23T10:44:44.304Z,36.83
2018-03-23T10:47:16.901Z,34.63
2018-03-23T10:49:49.398Z,34.57
2018-03-23T10:52:21.841Z,39.50
2018-03-23T10:54:55.248Z,39.47
2018-03-23T10:57:27.869Z,37.63
2018-03-23T11:00:00.588Z,38.60
2018-03-23T11:02:43.116Z,42.10
2018-03-23T11:05:16.316Z,41.23
2018-03-23T11:07:48.853Z,45.53
2018-03-23T11:10:21.734Z,42.33
2018-03-23T11:12:54.353Z,47.90
2018-03-23T11:15:26.796Z,46.43
2018-03-23T11:17:59.558Z,46.10
2018-03-23T11:20:32.827Z,50.17
2018-03-23T11:23:05.276Z,47.37
2018-03-23T11:25:38.079Z,50.60
2018-03-23T11:28:10.489Z,53.77
2018-03-23T11:30:43.963Z,52.73
2018-03-23T11:33:16.662Z,49.23
2018-03-23T11:35:49.231Z,52.37
2018-03-23T11:38:23.109Z,57.07
2018-03-23T11:40:56.674Z,59.23
2018-03-23T11:43:29.214Z,54.87
2018-03-23T11:46:01.943Z,54.70
2018-03-23T11:48:34.413Z,51.77
2018-03-23T11:51:07.371Z,61.77
2018-03-23T11:53:39.788Z,55.57
2018-03-23T11:56:12.159Z,50.67
2018-03-23T11:58:44.913Z,45.37
2018-03-23T12:01:18.032Z,44.20
2018-03-23T12:03:50.757Z,48.30
2018-03-23T12:06:23.229Z,48.93
2018-03-23T12:08:55.558Z,47.37
2018-03-23T12:11:28.176Z,49.73
2018-03-23T12:14:02.310Z,42.90
2018-03-23T12:16:34.832Z,39.20
2018-03-23T12:19:07.524Z,47.83
2018-03-23T12:21:40.128Z,51.03
2018-03-23T12:24:13.266Z,50.47
2018-03-23T12:26:45.899Z,43.03
2018-03-23T12:29:18.464Z,43.13
2018-03-23T12:31:51.012Z,46.87
2018-03-23T12:34:23.625Z,42.73
2018-03-23T12:36:56.088Z,47.40
2018-03-23T12:39:28.673Z,44.00
2018-03-23T12:42:01.873Z,41.17
2018-03-23T12:44:34.488Z,47.77
2018-03-23T12:47:07.913Z,42.70
2018-03-23T12:49:40.319Z,39.57
2018-03-23T12:52:13.501Z,38.80
2018-03-23T12:54:46.288Z,39.43
2018-03-23T12:57:18.727Z,42.97
2018-03-23T12:59:52.542Z,40.90
2018-03-23T13:02:24.937Z,35.53
2018-03-23T13:04:57.719Z,35.60
2018-03-23T13:07:30.407Z,41.63
2018-03-23T13:10:03.703Z,36.90
2018-03-23T13:12:36.179Z,36.13
2018-03-23T13:15:08.840Z,41.93
2018-03-23T13:17:41.338Z,36.60
2018-03-23T13:20:13.965Z,31.97
2018-03-23T13:22:47.982Z,34.90
2018-03-23T13:25:20.361Z,31.27
2018-03-23T13:27:52.845Z,32.47
2018-03-23T13:30:25.740Z,33.87
2018-03-23T13:32:58.051Z,33.10
2018-03-23T13:35:30.584Z,29.20
2018-03-23T13:38:03.750Z,31.70
2018-03-23T13:40:36.996Z,31.50
2018-03-23T13:43:09.686Z,29.13
2018-03-23T13:45:42.202Z,30.13
2018-03-23T13:48:14.660Z,26.97
2018-03-23T13:50:47.452Z,29.17
2018-03-23T13:53:20.756Z,22.97
2018-03-23T13:55:53.218Z,25.07
2018-03-23T13:58:32.070Z,23.17
2018-03-23T14:01:04.682Z,26.97
2018-03-23T14:03:37.906Z,24.67
2018-03-23T14:06:10.317Z,24.60
2018-03-23T14:08:42.788Z,26.30
2018-03-23T14:11:16.346Z,24.87
2018-03-23T14:13:49.696Z,21.27
2018-03-23T14:16:22.937Z,24.07
2018-03-23T14:18:56.177Z,24.47
2018-03-23T14:21:28.896Z,24.20
2018-03-23T14:24:02.192Z,22.93
2018-03-23T14:26:35.439Z,22.77
2018-03-23T14:29:07.951Z,24.07
2018-03-23T14:31:40.453Z,22.20
2018-03-23T14:34:12.856Z,21.43
2018-03-23T14:36:45.997Z,21.77
2018-03-23T14:39:18.652Z,20.80
2018-03-23T14:41:51.309Z,19.73
2018-03-23T14:44:23.917Z,21.07
2018-03-23T14:46:57.322Z,20.97
2018-03-23T14:49:29.839Z,21.43
2018-03-23T14:52:02.574Z,26.67
2018-03-23T14:54:35.243Z,32.00
2018-03-23T14:57:07.895Z,36.67
2018-03-23T14:59:40.384Z,34.27
2018-03-23T15:02:12.889Z,33.57
2018-03-23T15:04:45.784Z,30.93
2018-03-23T15:07:18.584Z,27.90
2018-03-23T15:09:51.152Z,26.23
2018-03-23T15:12:24.738Z,29.47
2018-03-23T15:14:57.188Z,25.47
2018-03-23T15:17:29.733Z,28.97
2018-03-23T15:20:02.544Z,26.93
2018-03-23T15:22:35.225Z,24.90
2018-03-23T15:25:07.792Z,26.17
2018-03-23T15:27:40.314Z,24.43
2018-03-23T15:30:13.142Z,27.40
2018-03-23T15:32:45.652Z,23.43
2018-03-23T15:35:18.356Z,23.90
2018-03-23T15:37:50.979Z,21.53
2018-03-23T15:40:24.149Z,20.80
2018-03-23T15:42:57.173Z,22.03
2018-03-23T15:45:29.609Z,21.07
2018-03-23T15:48:02.054Z,19.00
2018-03-23T15:50:35.138Z,20.07
2018-03-23T15:53:07.667Z,23.73
2018-03-23T15:55:40.158Z,17.33
2018-03-23T15:58:13.466Z,21.70
2018-03-23T16:00:46.011Z,21.50
2018-03-23T16:03:18.522Z,20.60
2018-03-23T16:05:51.276Z,20.43
2018-03-23T16:08:23.906Z,22.20
2018-03-23T16:10:56.629Z,19.27
2018-03-23T16:13:29.782Z,20.50
2018-03-23T16:16:02.182Z,19.17
2018-03-23T16:18:34.860Z,19.33
2018-03-23T16:21:07.341Z,16.60
2018-03-23T16:23:41.258Z,15.23
2018-03-23T16:26:13.674Z,17.57
2018-03-23T16:28:46.231Z,18.40
2018-03-23T16:31:18.703Z,16.20
2018-03-23T16:33:51.483Z,15.87
2018-03-23T16:36:24.142Z,15.20
2018-03-23T16:38:56.861Z,17.83
2018-03-23T16:41:29.299Z,16.07
2018-03-23T16:44:02.619Z,17.92
2018-03-23T16:46:36.315Z,16.80
2018-03-23T16:49:02.712Z,16.87
2018-03-23T16:51:29.085Z,15.30
2018-03-23T16:53:55.403Z,15.20
2018-03-23T16:56:21.708Z,14.20
2018-03-23T16:58:48.076Z,14.90
2018-03-23T17:01:14.382Z,14.70
2018-03-23T17:03:40.737Z,15.30
2018-03-23T17:06:07.079Z,15.80
2018-03-23T17:08:33.417Z,17.90
2018-03-23T17:11:00.412Z,14.87
2018-03-23T17:13:26.768Z,16.13
2018-03-23T17:15:53.088Z,17.10
2018-03-23T17:18:19.973Z,14.80
2018-03-23T17:20:46.533Z,16.90
2018-03-23T17:23:13.982Z,17.50
2018-03-23T17:25:41.168Z,17.47
2018-03-23T17:28:08.193Z,16.00
2018-03-23T17:30:34.558Z,16.43
2018-03-23T17:33:00.897Z,16.77
2018-03-23T17:35:27.384Z,17.20
2018-03-23T17:37:55.236Z,16.30
2018-03-23T17:40:21.769Z,16.30
2018-03-23T17:42:48.972Z,18.65
2018-03-23T17:45:15.403Z,17.83
2018-03-23T17:47:41.682Z,17.60
2018-03-23T17:50:09.075Z,16.77
2018-03-23T17:52:35.401Z,17.03
2018-03-23T17:55:01.772Z,16.57
2018-03-23T17:57:28.091Z,16.70
2018-03-23T17:59:54.413Z,16.33
2018-03-23T18:02:20.734Z,17.73
2018-03-23T18:04:47.033Z,17.30
2018-03-23T18:07:14.084Z,17.07
2018-03-23T18:09:41.253Z,16.23
2018-03-23T18:12:07.594Z,15.60
2018-03-23T18:14:33.893Z,16.43
2018-03-23T18:17:01.642Z,16.27
2018-03-23T18:19:28.169Z,16.10
2018-03-23T18:21:56.058Z,16.10
2018-03-23T18:24:23.152Z,17.50
2018-03-23T18:26:49.448Z,15.30
2018-03-23T18:29:15.868Z,17.73
2018-03-23T18:31:42.478Z,16.60
2018-03-23T18:34:09.615Z,16.77
2018-03-23T18:36:35.964Z,18.67
2018-03-23T18:39:02.314Z,15.97
2018-03-23T18:41:29.508Z,18.10
2018-03-23T18:43:55.921Z,16.83
2018-03-23T18:46:22.349Z,17.80
2018-03-23T18:48:48.792Z,16.87
2018-03-23T18:51:15.168Z,16.80
2018-03-23T18:53:41.454Z,18.03
2018-03-23T18:56:07.908Z,17.40
2018-03-23T18:58:34.337Z,18.30
2018-03-23T19:01:00.701Z,20.10
2018-03-23T19:03:27.028Z,19.73
2018-03-23T19:05:54.152Z,18.50
2018-03-23T19:08:20.603Z,18.40
2018-03-23T19:10:47.128Z,20.80
2018-03-23T19:13:14.059Z,18.93
2018-03-23T19:15:41.277Z,18.90
2018-03-23T19:18:07.581Z,20.00
2018-03-23T19:20:40.305Z,19.47
2018-03-23T19:23:12.815Z,19.10
2018-03-23T19:25:45.491Z,19.47
2018-03-23T19:28:18.019Z,16.93
2018-03-23T19:30:50.605Z,21.60
2018-03-23T19:33:23.196Z,17.87
2018-03-23T19:35:56.609Z,20.97
2018-03-23T19:38:30.092Z,21.67
2018-03-23T19:41:02.777Z,23.00
2018-03-23T19:43:35.485Z,27.60
2018-03-23T19:46:08.023Z,29.03
2018-03-23T19:48:40.673Z,28.50
2018-03-23T19:51:13.192Z,29.30
2018-03-23T19:53:45.948Z,25.77
2018-03-23T19:56:18.427Z,26.10
2018-03-23T19:58:51.971Z,27.90
2018-03-23T20:01:24.673Z,32.10
2018-03-23T20:03:57.445Z,28.47
2018-03-23T20:06:29.972Z,29.70
2018-03-23T20:09:03.229Z,33.80
2018-03-23T20:11:36.026Z,30.90
2018-03-23T20:14:10.505Z,29.37
2018-03-23T20:16:43.030Z,27.17
2018-03-23T20:19:16.198Z,30.00
2018-03-23T20:21:48.836Z,30.17
2018-03-23T20:24:27.693Z,36.70
2018-03-23T20:27:01.910Z,30.43
2018-03-23T20:29:35.590Z,30.70
2018-03-23T20:32:14.249Z,29.83
2018-03-23T20:34:46.767Z,34.97
2018-03-23T20:37:19.231Z,33.20
2018-03-23T20:39:52.702Z,30.57
2018-03-23T20:42:25.210Z,31.33
2018-03-23T20:44:57.960Z,30.63
2018-03-23T20:47:30.593Z,31.80
2018-03-23T20:50:03.512Z,32.13
2018-03-23T20:52:35.953Z,32.20
2018-03-23T20:55:08.568Z,31.23
2018-03-23T20:57:41.158Z,33.40
2018-03-23T21:00:14.326Z,34.87
2018-03-23T21:02:47.603Z,34.03
2018-03-23T21:05:20.137Z,32.50
2018-03-23T21:07:52.584Z,33.20
2018-03-23T21:10:24.968Z,33.07
2018-03-23T21:12:57.492Z,34.13
2018-03-23T21:15:29.948Z,32.77
2018-03-23T21:18:03.163Z,33.57
2018-03-23T21:20:35.900Z,36.27
2018-03-23T21:23:08.503Z,38.67
2018-03-23T21:25:40.858Z,36.23
2018-03-23T21:28:13.418Z,32.77
2018-03-23T21:30:46.017Z,35.90
2018-03-23T21:33:18.675Z,36.40
2018-03-23T21:35:51.357Z,40.40
2018-03-23T21:38:24.911Z,37.67
2018-03-23T21:40:58.386Z,35.67
2018-03-23T21:43:31.022Z,35.43
2018-03-23T21:46:03.709Z,35.00
2018-03-23T21:48:36.369Z,35.90
2018-03-23T21:51:09.012Z,35.43
2018-03-23T21:53:41.550Z,36.87
2018-03-23T21:56:14.183Z,37.57
2018-03-23T21:58:46.673Z,38.83
2018-03-23T22:01:19.954Z,37.57
2018-03-23T22:03:52.868Z,39.27
2018-03-23T22:06:25.473Z,35.87
2018-03-23T22:08:58.085Z,38.67
2018-03-23T22:11:31.214Z,38.93
2018-03-23T22:14:04.327Z,39.17
2018-03-23T22:16:36.829Z,37.97
2018-03-23T22:19:09.379Z,40.17
2018-03-23T22:21:42.249Z,44.83
2018-03-23T22:26:54.814Z,38.57
2018-03-23T22:29:27.217Z,41.73
2018-03-23T22:31:59.844Z,38.10
2018-03-23T22:34:32.506Z,40.63
2018-03-23T22:37:05.258Z,37.53
2018-03-23T22:39:37.769Z,40.93
2018-03-23T22:42:10.400Z,40.70
2018-03-23T22:44:43.696Z,41.47
2018-03-23T22:47:16.467Z,38.30
2018-03-23T22:49:49.154Z,46.83
2018-03-23T22:52:21.769Z,39.43
2018-03-23T22:54:54.267Z,36.20
2018-03-23T22:57:27.016Z,35.83
2018-03-23T22:59:59.663Z,36.97
2018-03-23T23:02:32.301Z,38.37
2018-03-23T23:05:04.750Z,36.23
2018-03-23T23:07:37.282Z,35.73
2018-03-23T23:10:09.849Z,38.63
2018-03-23T23:12:49.512Z,42.90
2018-03-23T23:15:22.748Z,37.80
2018-03-23T23:17:55.337Z,37.20
2018-03-23T23:20:28.130Z,35.83
2018-03-23T23:23:00.617Z,36.77
2018-03-23T23:25:33.731Z,40.40
2018-03-23T23:28:06.297Z,41.93
2018-03-23T23:30:38.734Z,36.27
2018-03-23T23:33:11.068Z,39.23
2018-03-23T23:35:43.999Z,38.93
2018-03-23T23:38:17.148Z,40.27
2018-03-23T23:40:49.614Z,35.47
2018-03-23T23:43:22.570Z,35.83
2018-03-23T23:45:55.518Z,35.17
2018-03-23T23:48:28.866Z,37.33
2018-03-23T23:51:01.818Z,38.93
2018-03-23T23:53:34.218Z,34.30
2018-03-23T23:56:07.434Z,34.90
2018-03-23T23:58:39.989Z,33.60
